CYKJ

Key Lake Airport

Key Lake, Saskatchewan, Canada
TAF CYKJ 181838Z 1819/1824 30008KT P6SM FEW140 SCT240 RMK FCST BASED ON AUTO OBS. NXT FCST WILL BE ISSUED AT 190945Z
Issued Valid From Valid To
Jul-18 @ 18:38 UTC
(4 hours ago)
Jul-18 @ 19:00 UTC
(3 hours ago)
Jul-19 @ 00:00 UTC
(in 2 hours)
Jul-18 @ 19:00 to Jul-19 @ 00:00
TAF CYKJ 181838Z 1819/1824 30008KT P6SM FEW140 SCT240 RMK FCST BASED ON AUTO OBS. NXT FCST WILL BE ISSUED AT 190945Z
Wind Visibility Clouds
300° at 8 knots Greater than 6 miles
  • Few at 14,000' AGL
  • Scattered at 24,000' AGL
TAF CYKJ 181838Z 1819/1824 30008KT P6SM FEW140 SCT240 RMK FCST BASED ON AUTO OBS. NXT FCST WILL BE ISSUED AT 190945Z
Issued Jul-18 @ 18:38 UTC
(4 hours ago)
Valid From Jul-18 @ 19:00 UTC
(3 hours ago)
Valid To Jul-19 @ 00:00 UTC
(in 2 hours)
Jul-18 @ 19:00 - Jul-19 @ 00:00
Wind Visibility
300° at 8 knots Greater than 6 miles
Clouds
  • Few at 14,000' AGL
  • Scattered at 24,000' AGL